Time;durP1;ratioP1;P1;durP2;ratioP2;P2;SDS_P1;SDS_P2;PMS_P1;PMS_P2;Temp;Humidity;BMP_temperature;BMP_pressure;BME280_temperature;BME280_humidity;BME280_pressure;Samples;Min_cycle;Max_cycle;Signal;HPM_P1;HPM_P2
2021/10/20 13:11:34;;;;;;;;;;;;;;;;;;5066398;27;19917;-80
2021/10/20 13:14:00;;;;;;;;;;;;;;;;;;5063835;28;19923;-80
2021/10/20 13:16:26;;;;;;;;;;;;;;;;;;5068551;28;19991;-80
2021/10/20 13:18:51;;;;;;;;;;;;;;;;;;5068469;28;19960;-80
2021/10/20 13:21:17;;;;;;;;;;;;;;;;;;5068573;28;19912;-79
2021/10/20 13:23:43;;;;;;;;;;;;;;;;;;5067209;28;20250;-81
2021/10/20 13:26:09;;;;;;;;;;;;;;;;;;5068350;28;19913;-83
2021/10/20 13:28:35;;;;;;;;;;;;;;;;;;5068725;28;19924;-81
2021/10/20 13:31:01;;;;;;;;;;;;;;;;;;5068241;28;19924;-81
2021/10/20 13:33:27;;;;;;;;;;;;;;;;;;5068529;28;20245;-80
2021/10/20 13:35:53;;;;;;;;;;;;;;;;;;5068103;28;19990;-79
2021/10/20 13:38:22;;;;;;;;;;;;;;;;;;5067805;28;20307;-78
2021/10/20 13:40:48;;;;;;;;;;;;;;;;;;5068105;28;19909;-78
2021/10/20 13:43:14;;;;;;;;;;;;;;;;;;5068806;28;20285;-77
2021/10/20 13:45:40;;;;;;;;;;;;;;;;;;5069230;28;19966;-79
2021/10/20 13:48:06;;;;;;;;;;;;;;;;;;5067575;28;20047;-78
2021/10/20 13:50:32;;;;;;;;;;;;;;;;;;5068323;28;20343;-78
2021/10/20 13:52:58;;;;;;;;;;;;;;;;;;5068603;28;20241;-80
2021/10/20 13:55:28;;;;;;;;;;;;;;;;;;5067795;28;20286;-80
2021/10/20 13:57:54;;;;;;;;;;;;;;;;;;5067875;28;19916;-80
2021/10/20 14:00:20;;;;;;;;;;;;;;;;;;5067511;28;19917;-81
2021/10/20 14:02:46;;;;;;;;;;;;;;;;;;5068175;28;20011;-77
2021/10/20 14:05:11;;;;;;;;;;;;;;;;;;5067619;28;20265;-78
2021/10/20 14:07:37;;;;;;;;;;;;;;;;;;5067434;28;20311;-81
2021/10/20 14:10:03;;;;;;;;;;;;;;;;;;5067238;28;19924;-81
2021/10/20 14:12:29;;;;;;;;;;;;;;;;;;5067651;28;19908;-82
2021/10/20 14:14:55;;;;;;;;;;;;;;;;;;5066851;28;19912;-81
2021/10/20 14:17:22;;;;;;;;;;;;;;;;;;5067024;28;20264;-82
2021/10/20 14:19:47;;;;;;;;;;;;;;;;;;5067255;28;19923;-80
2021/10/20 14:22:13;;;;;;;;;;;;;;;;;;5057716;28;19992;-79
2021/10/20 14:24:39;;;;;;;;;;;;;;;;;;5053842;28;20372;-80
2021/10/20 14:27:05;;;;;;;;;;;;;;;;;;5054130;28;19913;-80
2021/10/20 14:29:34;;;;;;;;;;;;;;;;;;5053654;28;20242;-80
2021/10/20 14:32:00;;;;;;;;;;;;;;;;;;5053687;28;20023;-81
2021/10/20 14:34:25;;;;;;;;;;;;;;;;;;5053886;28;20003;-80
2021/10/20 14:36:51;;;;;;;;;;;;;;;;;;5053629;28;19916;-81
2021/10/20 14:39:17;;;;;;;;;;;;;;;;;;5053757;28;19952;-81
2021/10/20 14:41:43;;;;;;;;;;;;;;;;;;5053129;28;19920;-80
2021/10/20 14:44:09;;;;;;;;;;;;;;;;;;5053559;28;19909;-80
2021/10/20 14:46:35;;;;;;;;;;;;;;;;;;5053634;28;19917;-80
2021/10/20 14:49:02;;;;;;;;;;;;;;;;;;5053634;28;19915;-80
2021/10/20 14:51:28;;;;;;;;;;;;;;;;;;5053359;28;20250;-81
2021/10/20 14:53:54;;;;;;;;;;;;;;;;;;5053620;28;19916;-80
2021/10/20 14:56:20;;;;;;;;;;;;;;;;;;5053437;28;19912;-80
2021/10/20 14:58:46;;;;;;;;;;;;;;;;;;5053487;28;20285;-80
2021/10/20 15:01:12;;;;;;;;;;;;;;;;;;5053369;28;19987;-80
2021/10/20 15:03:38;;;;;;;;;;;;;;;;;;5053346;28;19995;-81
2021/10/20 15:06:11;;;;;;;;;;;;;;;;;;5053196;28;19943;-81
2021/10/20 15:08:37;;;;;;;;;;;;;;;;;;5052925;28;19919;-80
2021/10/20 15:11:03;;;;;;;;;;;;;;;;;;5052935;28;19925;-80
2021/10/20 15:13:29;;;;;;;;;;;;;;;;;;5052683;28;19909;-81
2021/10/20 15:15:55;;;;;;;;;;;;;;;;;;5053243;28;20350;-81
2021/10/20 15:18:22;;;;;;;;;;;;;;;;;;5051543;28;19916;-80
2021/10/20 15:21:02;;;;;;;;;;;;;;;;;;5044326;28;19920;-80
2021/10/20 15:23:28;;;;;;;;;;;;;;;;;;5033254;28;20353;-80
2021/10/20 15:25:54;;;;;;;;;;;;;;;;;;5033015;28;19917;-79
2021/10/20 15:28:20;;;;;;;;;;;;;;;;;;5033175;28;20368;-81
2021/10/20 15:30:46;;;;;;;;;;;;;;;;;;5033072;28;19913;-80
2021/10/20 15:33:12;;;;;;;;;;;;;;;;;;5032097;28;19917;-79
2021/10/20 15:35:41;;;;;;;;;;;;;;;;;;5031666;28;19917;-79
2021/10/20 15:38:07;;;;;;;;;;;;;;;;;;5032631;28;19955;-81
2021/10/20 15:40:33;;;;;;;;;;;;;;;;;;5032857;28;19952;-81
2021/10/20 15:42:59;;;;;;;;;;;;;;;;;;5032813;28;19917;-80
2021/10/20 15:45:24;;;;;;;;;;;;;;;;;;5032745;28;19971;-79
2021/10/20 15:47:50;;;;;;;;;;;;;;;;;;5032598;28;19913;-81
2021/10/20 15:50:16;;;;;;;;;;;;;;;;;;5032508;28;20342;-80
2021/10/20 15:52:42;;;;;;;;;;;;;;;;;;5032673;28;19913;-80
2021/10/20 15:55:08;;;;;;;;;;;;;;;;;;5032489;28;20357;-80
2021/10/20 15:57:34;;;;;;;;;;;;;;;;;;5032321;28;20000;-80
2021/10/20 16:00:00;;;;;;;;;;;;;;;;;;5032523;28;19925;-81
2021/10/20 16:02:26;;;;;;;;;;;;;;;;;;5031374;28;19909;-81
2021/10/20 16:04:51;;;;;;;;;;;;;;;;;;5032475;28;20335;-81
2021/10/20 16:07:17;;;;;;;;;;;;;;;;;;5032123;28;20003;-79
2021/10/20 16:09:43;;;;;;;;;;;;;;;;;;5031933;28;19929;-80
2021/10/20 16:12:09;;;;;;;;;;;;;;;;;;5036813;28;19909;-81
2021/10/20 16:14:35;;;;;;;;;;;;;;;;;;5052110;28;19917;-80
2021/10/20 16:17:01;;;;;;;;;;;;;;;;;;5052090;28;20246;-80
2021/10/20 16:19:27;;;;;;;;;;;;;;;;;;5051118;28;19916;-80
2021/10/20 16:21:52;;;;;;;;;;;;;;;;;;5052370;28;19916;-81
2021/10/20 16:24:18;;;;;;;;;;;;;;;;;;5052105;28;19915;-80
2021/10/20 16:26:44;;;;;;;;;;;;;;;;;;5051822;28;19913;-79
2021/10/20 16:29:10;;;;;;;;;;;;;;;;;;5052095;28;19919;-79
2021/10/20 16:31:36;;;;;;;;;;;;;;;;;;5051955;28;19912;-80
2021/10/20 16:34:03;;;;;;;;;;;;;;;;;;5051892;28;19979;-79
2021/10/20 16:36:29;;;;;;;;;;;;;;;;;;5051336;28;20472;-80
2021/10/20 16:38:55;;;;;;;;;;;;;;;;;;5051704;28;20003;-81
2021/10/20 16:41:21;;;;;;;;;;;;;;;;;;5051748;28;19908;-81
2021/10/20 16:43:46;;;;;;;;;;;;;;;;;;5052160;28;20211;-80
2021/10/20 16:46:14;;;;;;;;;;;;;;;;;;5051247;28;19919;-80
2021/10/20 16:48:40;;;;;;;;;;;;;;;;;;5051251;28;19913;-80
2021/10/20 16:51:06;;;;;;;;;;;;;;;;;;5051489;28;19913;-80
2021/10/20 16:53:32;;;;;;;;;;;;;;;;;;5051318;28;19963;-80
2021/10/20 16:55:58;;;;;;;;;;;;;;;;;;5051272;28;19905;-80
2021/10/20 16:58:24;;;;;;;;;;;;;;;;;;5051284;28;19913;-80
2021/10/20 17:00:50;;;;;;;;;;;;;;;;;;5051725;28;19948;-80
2021/10/20 17:03:16;;;;;;;;;;;;;;;;;;5051557;28;19909;-79
2021/10/20 17:05:43;;;;;;;;;;;;;;;;;;5051246;28;19905;-80
2021/10/20 17:08:09;;;;;;;;;;;;;;;;;;5050903;28;19990;-79
2021/10/20 17:10:35;;;;;;;;;;;;;;;;;;5050752;28;19929;-79
2021/10/20 17:13:01;;;;;;;;;;;;;;;;;;5051474;28;19921;-80
2021/10/20 17:15:27;;;;;;;;;;;;;;;;;;5050501;28;19909;-81
2021/10/20 17:17:53;;;;;;;;;;;;;;;;;;5051167;28;20290;-80
2021/10/20 17:20:19;;;;;;;;;;;;;;;;;;5051320;28;20004;-79
2021/10/20 17:22:44;;;;;;;;;;;;;;;;;;5051266;28;19909;-79
2021/10/20 17:25:10;;;;;;;;;;;;;;;;;;5051210;28;19913;-79
2021/10/20 17:27:36;;;;;;;;;;;;;;;;;;5051282;28;20345;-80
2021/10/20 17:30:07;;;;;;;;;;;;;;;;;;5051348;28;20294;-80
2021/10/20 17:32:33;;;;;;;;;;;;;;;;;;5051365;28;19908;-79
2021/10/20 17:34:59;;;;;;;;;;;;;;;;;;5051068;28;19919;-80
2021/10/20 17:37:25;;;;;;;;;;;;;;;;;;5050960;28;19917;-80
2021/10/20 17:39:51;;;;;;;;;;;;;;;;;;5050035;28;19986;-79
2021/10/20 17:42:17;;;;;;;;;;;;;;;;;;5051169;28;19960;-80
2021/10/20 17:44:43;;;;;;;;;;;;;;;;;;5050492;28;20258;-79
2021/10/20 17:47:08;;;;;;;;;;;;;;;;;;5050673;28;19908;-80
2021/10/20 17:49:34;;;;;;;;;;;;;;;;;;5050965;28;19991;-80
2021/10/20 17:52:00;;;;;;;;;;;;;;;;;;5051151;28;19912;-80
2021/10/20 17:54:26;;;;;;;;;;;;;;;;;;5050821;28;19905;-80
2021/10/20 17:56:52;;;;;;;;;;;;;;;;;;5052585;28;19913;-80
2021/10/20 17:59:18;;;;;;;;;;;;;;;;;;5054701;28;19944;-79
2021/10/20 18:01:44;;;;;;;;;;;;;;;;;;5054831;28;20379;-80
2021/10/20 18:04:10;;;;;;;;;;;;;;;;;;5054624;28;19944;-79
2021/10/20 18:06:36;;;;;;;;;;;;;;;;;;5054292;28;19913;-79
2021/10/20 18:09:01;;;;;;;;;;;;;;;;;;5054405;28;20342;-80
2021/10/20 18:11:27;;;;;;;;;;;;;;;;;;5054040;28;19929;-80
2021/10/20 18:13:53;;;;;;;;;;;;;;;;;;5054419;28;19912;-80
2021/10/20 18:16:19;;;;;;;;;;;;;;;;;;5054216;28;19916;-79
2021/10/20 18:18:46;;;;;;;;;;;;;;;;;;5054151;28;19961;-81
2021/10/20 18:21:12;;;;;;;;;;;;;;;;;;5054646;28;19919;-81
2021/10/20 18:23:38;;;;;;;;;;;;;;;;;;5054240;28;20334;-80
2021/10/20 18:26:04;;;;;;;;;;;;;;;;;;5054271;28;19940;-80
2021/10/20 18:28:30;;;;;;;;;;;;;;;;;;5054277;28;20326;-80
2021/10/20 18:30:56;;;;;;;;;;;;;;;;;;5054230;28;19912;-79
2021/10/20 18:33:22;;;;;;;;;;;;;;;;;;5054127;28;20396;-80
2021/10/20 18:35:48;;;;;;;;;;;;;;;;;;5053938;28;19956;-80
2021/10/20 18:38:14;;;;;;;;;;;;;;;;;;5053862;28;19908;-81
2021/10/20 18:40:40;;;;;;;;;;;;;;;;;;5053753;28;19920;-80
2021/10/20 18:43:06;;;;;;;;;;;;;;;;;;5053851;28;19913;-80
2021/10/20 18:45:32;;;;;;;;;;;;;;;;;;5053802;28;19908;-81
2021/10/20 18:47:57;;;;;;;;;;;;;;;;;;5053637;28;19963;-80
2021/10/20 18:50:23;;;;;;;;;;;;;;;;;;5054051;28;19913;-80
2021/10/20 18:52:49;;;;;;;;;;;;;;;;;;5057010;28;19980;-80
2021/10/20 18:55:15;;;;;;;;;;;;;;;;;;5066012;28;19913;-79
2021/10/20 18:57:41;;;;;;;;;;;;;;;;;;5055613;28;20234;-79
2021/10/20 19:00:07;;;;;;;;;;;;;;;;;;5053426;28;19905;-80
2021/10/20 19:02:33;;;;;;;;;;;;;;;;;;5053467;28;19916;-80
2021/10/20 19:04:59;;;;;;;;;;;;;;;;;;5053432;28;20330;-80
2021/10/20 19:07:25;;;;;;;;;;;;;;;;;;5053029;28;20010;-80
2021/10/20 19:09:51;;;;;;;;;;;;;;;;;;5052964;28;20055;-80
2021/10/20 19:12:17;;;;;;;;;;;;;;;;;;5053100;28;19909;-80
2021/10/20 19:14:46;;;;;;;;;;;;;;;;;;5053085;28;20357;-80
2021/10/20 19:17:11;;;;;;;;;;;;;;;;;;5053560;28;20317;-80
2021/10/20 19:19:37;;;;;;;;;;;;;;;;;;5053306;28;20003;-79
2021/10/20 19:22:03;;;;;;;;;;;;;;;;;;5053225;28;20004;-79
2021/10/20 19:24:29;;;;;;;;;;;;;;;;;;5053021;28;20342;-80
2021/10/20 19:26:55;;;;;;;;;;;;;;;;;;5053354;28;19917;-80
2021/10/20 19:29:21;;;;;;;;;;;;;;;;;;5053184;28;19909;-79
2021/10/20 19:31:47;;;;;;;;;;;;;;;;;;5052969;28;20010;-80
2021/10/20 19:34:12;;;;;;;;;;;;;;;;;;5052993;28;19917;-79
2021/10/20 19:36:38;;;;;;;;;;;;;;;;;;5052717;28;19909;-79
2021/10/20 19:39:04;;;;;;;;;;;;;;;;;;5052935;28;20385;-80
2021/10/20 19:41:30;;;;;;;;;;;;;;;;;;5052791;28;19912;-79
2021/10/20 19:43:57;;;;;;;;;;;;;;;;;;5052866;28;19909;-79
2021/10/20 19:46:23;;;;;;;;;;;;;;;;;;5052687;28;19909;-80
2021/10/20 19:48:49;;;;;;;;;;;;;;;;;;5052353;28;20360;-81
2021/10/20 19:51:15;;;;;;;;;;;;;;;;;;5052755;28;20359;-80
2021/10/20 19:53:41;;;;;;;;;;;;;;;;;;5052465;28;20050;-80
2021/10/20 19:56:07;;;;;;;;;;;;;;;;;;5052550;28;19909;-81
2021/10/20 19:58:33;;;;;;;;;;;;;;;;;;5052990;28;19924;-80
2021/10/20 20:00:59;;;;;;;;;;;;;;;;;;5052644;28;19913;-80
2021/10/20 20:03:25;;;;;;;;;;;;;;;;;;5052621;28;20277;-79
2021/10/20 20:05:51;;;;;;;;;;;;;;;;;;5052350;28;20004;-80
2021/10/20 20:08:16;;;;;;;;;;;;;;;;;;5052084;28;19920;-79
2021/10/20 20:10:44;;;;;;;;;;;;;;;;;;5051985;28;20373;-80
2021/10/20 20:13:10;;;;;;;;;;;;;;;;;;5052494;28;19909;-81
2021/10/20 20:15:36;;;;;;;;;;;;;;;;;;5052210;28;19982;-81
2021/10/20 20:18:02;;;;;;;;;;;;;;;;;;5051935;28;19991;-80
2021/10/20 20:20:28;;;;;;;;;;;;;;;;;;5051821;28;19909;-79
2021/10/20 20:22:56;;;;;;;;;;;;;;;;;;5051998;28;19970;-80
2021/10/20 20:25:22;;;;;;;;;;;;;;;;;;5052178;28;19913;-80
2021/10/20 20:27:48;;;;;;;;;;;;;;;;;;5052184;28;19909;-80
2021/10/20 20:30:14;;;;;;;;;;;;;;;;;;5051917;28;20322;-80
2021/10/20 20:32:40;;;;;;;;;;;;;;;;;;5052208;28;19957;-80
2021/10/20 20:35:06;;;;;;;;;;;;;;;;;;5052004;28;20343;-80
2021/10/20 20:37:32;;;;;;;;;;;;;;;;;;5050340;28;19915;-80
2021/10/20 20:39:57;;;;;;;;;;;;;;;;;;5052049;28;19912;-79
2021/10/20 20:42:23;;;;;;;;;;;;;;;;;;5051915;28;19945;-79
2021/10/20 20:44:50;;;;;;;;;;;;;;;;;;5051887;28;20311;-80
2021/10/20 20:47:16;;;;;;;;;;;;;;;;;;5051683;28;20381;-79
2021/10/20 20:49:42;;;;;;;;;;;;;;;;;;5052170;28;19912;-79
2021/10/20 20:52:08;;;;;;;;;;;;;;;;;;5051784;28;19909;-79
2021/10/20 20:54:35;;;;;;;;;;;;;;;;;;5050538;28;19932;-80
2021/10/20 20:57:01;;;;;;;;;;;;;;;;;;5051801;28;20008;-80
2021/10/20 20:59:27;;;;;;;;;;;;;;;;;;5051450;28;20393;-79
2021/10/20 21:01:53;;;;;;;;;;;;;;;;;;5051524;28;19913;-80
2021/10/20 21:04:19;;;;;;;;;;;;;;;;;;5051865;28;19987;-80
2021/10/20 21:06:44;;;;;;;;;;;;;;;;;;5051154;28;19923;-79
2021/10/20 21:09:10;;;;;;;;;;;;;;;;;;5051453;28;19959;-79
2021/10/20 21:11:36;;;;;;;;;;;;;;;;;;5051264;28;19943;-80
2021/10/20 21:14:02;;;;;;;;;;;;;;;;;;5051445;28;20463;-80
2021/10/20 21:16:28;;;;;;;;;;;;;;;;;;5051447;28;19913;-79
2021/10/20 21:18:54;;;;;;;;;;;;;;;;;;5051201;28;19979;-80
2021/10/20 21:21:20;;;;;;;;;;;;;;;;;;5051487;28;19909;-79
2021/10/20 21:23:47;;;;;;;;;;;;;;;;;;5051154;28;20293;-79
2021/10/20 21:26:13;;;;;;;;;;;;;;;;;;5051541;28;19962;-79
2021/10/20 21:28:40;;;;;;;;;;;;;;;;;;5051470;28;19913;-80
2021/10/20 21:31:06;;;;;;;;;;;;;;;;;;5051293;28;20310;-80
2021/10/20 21:33:32;;;;;;;;;;;;;;;;;;5055610;28;19996;-79
2021/10/20 21:35:58;;;;;;;;;;;;;;;;;;5055053;28;19905;-79
2021/10/20 21:38:23;;;;;;;;;;;;;;;;;;5054909;28;20012;-79
2021/10/20 21:40:50;;;;;;;;;;;;;;;;;;5054375;28;20027;-79
2021/10/20 21:43:16;;;;;;;;;;;;;;;;;;5055023;28;19913;-79
2021/10/20 21:45:42;;;;;;;;;;;;;;;;;;5054853;28;19966;-79
2021/10/20 21:48:08;;;;;;;;;;;;;;;;;;5054746;28;19912;-80
2021/10/20 21:50:34;;;;;;;;;;;;;;;;;;5054057;28;20338;-80
2021/10/20 21:53:00;;;;;;;;;;;;;;;;;;5054975;28;20341;-79
2021/10/20 21:55:26;;;;;;;;;;;;;;;;;;5054818;28;19912;-79
2021/10/20 21:57:52;;;;;;;;;;;;;;;;;;5054993;28;19913;-80
2021/10/20 22:00:18;;;;;;;;;;;;;;;;;;5054725;28;19920;-80
2021/10/20 22:02:44;;;;;;;;;;;;;;;;;;5054816;28;19909;-80
2021/10/20 22:05:10;;;;;;;;;;;;;;;;;;5054833;28;19920;-80
2021/10/20 22:07:36;;;;;;;;;;;;;;;;;;5054103;28;19912;-80
2021/10/20 22:10:02;;;;;;;;;;;;;;;;;;5054386;28;20008;-80
2021/10/20 22:12:28;;;;;;;;;;;;;;;;;;5054529;28;19909;-80
2021/10/20 22:14:53;;;;;;;;;;;;;;;;;;5054322;28;19915;-78
2021/10/20 22:17:19;;;;;;;;;;;;;;;;;;5054331;28;19955;-80
2021/10/20 22:19:46;;;;;;;;;;;;;;;;;;5054363;28;19944;-78
2021/10/20 22:22:12;;;;;;;;;;;;;;;;;;5054238;28;19963;-79
2021/10/20 22:24:38;;;;;;;;;;;;;;;;;;5053232;28;19921;-79
2021/10/20 22:27:04;;;;;;;;;;;;;;;;;;5054580;28;20003;-80
2021/10/20 22:29:30;;;;;;;;;;;;;;;;;;5054335;28;19913;-80
2021/10/20 22:31:56;;;;;;;;;;;;;;;;;;5054124;28;19913;-80
2021/10/20 22:34:22;;;;;;;;;;;;;;;;;;5054359;28;20079;-79
2021/10/20 22:36:48;;;;;;;;;;;;;;;;;;5053790;28;20262;-81
2021/10/20 22:39:13;;;;;;;;;;;;;;;;;;5054065;28;19916;-80
2021/10/20 22:41:39;;;;;;;;;;;;;;;;;;5054063;28;20399;-80
2021/10/20 22:44:05;;;;;;;;;;;;;;;;;;5053480;28;19920;-79
2021/10/20 22:46:31;;;;;;;;;;;;;;;;;;5053895;28;20326;-79
2021/10/20 22:48:57;;;;;;;;;;;;;;;;;;5053559;28;20013;-79
2021/10/20 22:51:23;;;;;;;;;;;;;;;;;;5052814;28;19927;-79
2021/10/20 22:53:49;;;;;;;;;;;;;;;;;;5053913;28;19975;-80
2021/10/20 22:56:14;;;;;;;;;;;;;;;;;;5053837;28;19935;-81
2021/10/20 22:58:41;;;;;;;;;;;;;;;;;;5053722;28;19913;-80
2021/10/20 23:01:06;;;;;;;;;;;;;;;;;;5052678;28;19915;-79
2021/10/20 23:03:32;;;;;;;;;;;;;;;;;;5052976;28;20011;-79
2021/10/20 23:05:58;;;;;;;;;;;;;;;;;;5052509;28;19959;-79
2021/10/20 23:08:24;;;;;;;;;;;;;;;;;;5053395;28;19912;-81
2021/10/20 23:10:50;;;;;;;;;;;;;;;;;;5052296;28;19936;-80
2021/10/20 23:13:16;;;;;;;;;;;;;;;;;;5053177;28;19913;-80
2021/10/20 23:15:42;;;;;;;;;;;;;;;;;;5052326;28;20237;-80
2021/10/20 23:18:08;;;;;;;;;;;;;;;;;;5053405;28;19909;-80
2021/10/20 23:20:35;;;;;;;;;;;;;;;;;;5053227;28;19909;-81
2021/10/20 23:23:01;;;;;;;;;;;;;;;;;;5053542;28;20247;-81
2021/10/20 23:25:27;;;;;;;;;;;;;;;;;;5053133;28;20003;-81
2021/10/20 23:27:52;;;;;;;;;;;;;;;;;;5053356;28;19912;-79
2021/10/20 23:30:18;;;;;;;;;;;;;;;;;;5052012;28;19967;-79
2021/10/20 23:32:44;;;;;;;;;;;;;;;;;;5053199;28;19909;-79
2021/10/20 23:35:10;;;;;;;;;;;;;;;;;;5053149;28;19905;-80
2021/10/20 23:37:36;;;;;;;;;;;;;;;;;;5052534;28;19962;-79
2021/10/20 23:40:02;;;;;;;;;;;;;;;;;;5053143;28;20326;-79
2021/10/20 23:42:28;;;;;;;;;;;;;;;;;;5053056;28;19912;-80
2021/10/20 23:44:54;;;;;;;;;;;;;;;;;;5052655;28;19948;-80
2021/10/20 23:47:19;;;;;;;;;;;;;;;;;;5052693;28;19916;-80
2021/10/20 23:49:45;;;;;;;;;;;;;;;;;;5052703;28;20450;-79
2021/10/20 23:52:11;;;;;;;;;;;;;;;;;;5051913;28;19986;-79
2021/10/20 23:54:37;;;;;;;;;;;;;;;;;;5051876;28;19920;-81
2021/10/20 23:57:03;;;;;;;;;;;;;;;;;;5051580;28;19912;-81
2021/10/20 23:59:29;;;;;;;;;;;;;;;;;;5052425;28;19978;-80
